Time;durP1;ratioP1;P1;durP2;ratioP2;P2;SDS_P1;SDS_P2;PMS_P1;PMS_P2;Temp;Humidity;BMP_temperature;BMP_pressure;BME280_temperature;BME280_humidity;BME280_pressure;Samples;Min_cycle;Max_cycle;Signal;HPM_P1;HPM_P2
2022/01/11 00:02:00;;;;;;;34.35;13.02;;;;;;;-0.36;95.02;102963.06;5018405;28;20029;-73
2022/01/11 00:04:29;;;;;;;32.30;12.80;;;;;;;-0.33;95.18;102963.06;5006629;28;20033;-73
2022/01/11 00:06:54;;;;;;;32.47;13.95;;;;;;;-0.33;95.07;102963.06;5010547;28;20033;-74
2022/01/11 00:09:23;;;;;;;31.60;12.18;;;;;;;-0.31;95.06;102966.66;5024226;28;20037;-73
2022/01/11 00:11:50;;;;;;;34.13;12.35;;;;;;;-0.31;95.00;102977.34;5009995;28;20036;-73
2022/01/11 00:14:15;;;;;;;30.92;12.70;;;;;;;-0.31;95.05;102980.91;5021397;28;20029;-73
2022/01/11 00:16:41;;;;;;;35.08;13.55;;;;;;;-0.31;95.19;102974.69;5027773;28;20063;-73
2022/01/11 00:19:06;;;;;;;43.15;14.25;;;;;;;-0.31;95.17;102985.38;5008402;28;20117;-73
2022/01/11 00:21:44;;;;;;;34.80;13.88;;;;;;;-0.30;95.12;102990.72;5023695;28;20029;-73
2022/01/11 00:24:29;;;;;;;44.95;14.57;;;;;;;-0.29;94.98;102989.84;5019459;28;20036;-73
2022/01/11 00:27:01;;;;;;;32.53;13.35;;;;;;;-0.26;95.16;102986.31;5008799;28;20124;-73
2022/01/11 00:29:27;;;;;;;39.85;14.15;;;;;;;-0.28;95.27;102983.63;5020194;28;20059;-73
2022/01/11 00:31:54;;;;;;;37.55;14.18;;;;;;;-0.29;95.10;102988.94;5026883;28;20033;-73
2022/01/11 00:34:22;;;;;;;35.72;12.85;;;;;;;-0.26;95.14;102988.97;5027658;28;20025;-73
2022/01/11 00:36:47;;;;;;;32.75;13.73;;;;;;;-0.27;95.36;102981.84;5012934;28;20029;-73
2022/01/11 00:39:13;;;;;;;33.15;13.77;;;;;;;-0.28;95.18;102972.00;5027617;28;20104;-73
2022/01/11 00:41:41;;;;;;;39.50;13.18;;;;;;;-0.32;95.22;102976.47;5016404;28;20036;-74
2022/01/11 00:44:07;;;;;;;44.58;15.75;;;;;;;-0.29;95.33;102970.22;5017720;28;20033;-74
2022/01/11 00:46:33;;;;;;;38.15;13.77;;;;;;;-0.28;95.32;102969.34;5026449;28;20043;-73
2022/01/11 00:48:58;;;;;;;37.17;14.82;;;;;;;-0.31;95.38;102972.00;5023171;28;20025;-74
2022/01/11 00:51:23;;;;;;;38.70;14.32;;;;;;;-0.32;95.30;102971.13;5023850;28;20059;-73
2022/01/11 00:53:49;;;;;;;35.15;13.77;;;;;;;-0.33;95.71;102971.09;5014274;28;20069;-74
2022/01/11 00:56:14;;;;;;;36.92;13.85;;;;;;;-0.35;95.58;102970.19;5022294;28;20040;-73
2022/01/11 00:58:41;;;;;;;40.42;14.18;;;;;;;-0.34;95.46;102970.19;5013055;28;20381;-74
2022/01/11 01:01:06;;;;;;;38.60;15.07;;;;;;;-0.31;95.64;102970.22;5015396;28;20555;-74
2022/01/11 01:03:31;;;;;;;36.83;14.38;;;;;;;-0.31;95.60;102972.91;5011339;28;20049;-73
2022/01/11 01:05:57;;;;;;;44.47;16.77;;;;;;;-0.30;95.39;102988.06;5023894;28;20223;-73
2022/01/11 01:08:22;;;;;;;36.03;13.10;;;;;;;-0.31;95.45;102988.94;5020103;28;20025;-73
2022/01/11 01:10:48;;;;;;;43.40;15.38;;;;;;;-0.31;95.49;102988.94;5005928;28;20034;-73
2022/01/11 01:13:19;;;;;;;41.70;14.07;;;;;;;-0.36;95.68;102981.78;5008555;28;20559;-73
2022/01/11 01:15:47;;;;;;;41.72;14.80;;;;;;;-0.32;95.63;102994.28;5026071;28;20034;-73
2022/01/11 01:18:15;;;;;;;43.13;14.95;;;;;;;-0.33;95.52;102981.78;5021382;28;20367;-73
2022/01/11 01:20:42;;;;;;;44.92;15.63;;;;;;;-0.30;95.42;102981.81;5017833;28;20022;-73
2022/01/11 01:23:07;;;;;;;45.15;14.80;;;;;;;-0.27;95.66;102984.53;5007109;28;20082;-74
2022/01/11 01:25:33;;;;;;;42.55;15.57;;;;;;;-0.29;95.38;102983.59;5022962;28;20045;-73
2022/01/11 01:27:58;;;;;;;44.25;15.02;;;;;;;-0.33;95.35;102976.44;5010867;28;20038;-73
2022/01/11 01:30:23;;;;;;;40.67;14.65;;;;;;;-0.33;95.58;102980.03;5027698;28;20408;-74
2022/01/11 01:32:51;;;;;;;40.38;13.75;;;;;;;-0.29;95.61;102983.59;5030870;28;20033;-74
2022/01/11 01:35:19;;;;;;;42.92;16.23;;;;;;;-0.28;95.72;102980.97;5028064;28;20037;-74
2022/01/11 01:37:45;;;;;;;49.05;15.93;;;;;;;-0.28;95.80;102986.31;5030657;28;20036;-74
2022/01/11 01:40:12;;;;;;;38.90;14.63;;;;;;;-0.29;95.41;102987.16;5030201;28;20504;-74
2022/01/11 01:42:38;;;;;;;45.65;15.60;;;;;;;-0.31;95.44;102986.28;5025689;28;20026;-74
2022/01/11 01:45:04;;;;;;;46.20;14.15;;;;;;;-0.30;95.76;102989.84;5027278;28;20052;-74
2022/01/11 01:47:30;;;;;;;45.30;15.15;;;;;;;-0.30;95.44;102992.50;5041716;28;20033;-74
2022/01/11 01:49:56;;;;;;;50.20;15.75;;;;;;;-0.31;95.61;102985.38;5024573;28;20456;-73
2022/01/11 01:52:22;;;;;;;50.67;18.80;;;;;;;-0.34;95.59;102982.66;5016882;28;20136;-74
2022/01/11 01:54:48;;;;;;;49.17;17.58;;;;;;;-0.39;95.44;102979.97;5030481;28;20492;-73
2022/01/11 01:57:38;;;;;;;54.83;16.75;;;;;;;-0.39;95.38;102987.97;5022072;28;20026;-73
2022/01/11 02:00:11;;;;;;;46.90;15.45;;;;;;;-0.43;95.45;102980.81;5016448;28;20128;-73
2022/01/11 02:02:38;;;;;;;45.95;14.93;;;;;;;-0.42;95.54;102984.38;5026729;28;20014;-74
2022/01/11 02:05:06;;;;;;;44.92;16.98;;;;;;;-0.45;95.44;102987.94;5031197;28;20039;-74
2022/01/11 02:07:32;;;;;;;46.58;15.27;;;;;;;-0.43;95.98;102994.19;5029261;28;20032;-73
2022/01/11 02:09:57;;;;;;;45.95;15.13;;;;;;;-0.42;95.51;102992.41;5028987;28;20381;-73
2022/01/11 02:12:24;;;;;;;47.47;14.88;;;;;;;-0.40;95.47;103004.03;5017674;28;20030;-73
2022/01/11 02:14:49;;;;;;;45.55;15.38;;;;;;;-0.42;95.74;103005.78;5024346;28;20104;-73
2022/01/11 02:17:15;;;;;;;43.08;15.27;;;;;;;-0.40;95.82;103004.03;5028287;28;20149;-74
2022/01/11 02:19:40;;;;;;;49.97;16.65;;;;;;;-0.42;95.93;102997.75;5030294;28;20040;-73
2022/01/11 02:22:05;;;;;;;43.17;16.08;;;;;;;-0.42;95.61;103009.38;5025076;28;20155;-74
2022/01/11 02:24:33;;;;;;;44.92;16.45;;;;;;;-0.44;95.93;103013.81;5029204;28;20029;-73
2022/01/11 02:26:58;;;;;;;49.28;15.45;;;;;;;-0.39;95.93;103016.50;5024441;28;20367;-73
2022/01/11 02:29:25;;;;;;;44.97;15.38;;;;;;;-0.36;95.73;103025.47;5029483;28;20109;-73
2022/01/11 02:31:51;;;;;;;49.45;15.48;;;;;;;-0.37;95.75;103017.44;5027689;28;20108;-73
2022/01/11 02:34:16;;;;;;;46.47;15.27;;;;;;;-0.33;95.44;103019.22;5020452;28;20537;-73
2022/01/11 02:36:41;;;;;;;38.22;14.68;;;;;;;-0.37;95.50;103015.66;5024931;28;20049;-73
2022/01/11 02:39:06;;;;;;;41.60;15.52;;;;;;;-0.37;95.16;103021.00;5017633;28;20040;-74
2022/01/11 02:41:32;;;;;;;41.78;15.82;;;;;;;-0.38;95.24;103026.31;5024991;28;20036;-74
2022/01/11 02:43:59;;;;;;;44.55;15.25;;;;;;;-0.42;95.55;103030.78;5021774;28;20025;-73
2022/01/11 02:46:25;;;;;;;44.38;14.65;;;;;;;-0.44;95.34;103026.28;5017518;28;20032;-74
2022/01/11 02:48:53;;;;;;;48.75;15.02;;;;;;;-0.42;95.18;103043.22;5028043;28;20033;-73
2022/01/11 02:51:19;;;;;;;46.83;15.82;;;;;;;-0.44;95.18;103032.50;5029562;28;20079;-73
2022/01/11 02:53:47;;;;;;;48.50;14.75;;;;;;;-0.45;95.30;103037.84;5023578;28;20647;-73
2022/01/11 02:56:13;;;;;;;42.53;14.73;;;;;;;-0.45;95.18;103049.44;5028933;28;20025;-74
2022/01/11 02:58:39;;;;;;;46.30;15.98;;;;;;;-0.45;95.14;103048.56;5017008;28;20030;-73
2022/01/11 03:01:05;;;;;;;41.22;14.18;;;;;;;-0.52;95.29;103040.47;5027694;28;20217;-73
2022/01/11 03:03:31;;;;;;;48.15;16.83;;;;;;;-0.48;95.10;103043.16;5015862;28;20159;-73
2022/01/11 03:06:00;;;;;;;43.95;15.38;;;;;;;-0.49;95.19;103049.41;5028432;28;20533;-73
2022/01/11 03:08:28;;;;;;;42.47;14.65;;;;;;;-0.52;95.05;103036.88;5029673;28;20029;-73
2022/01/11 03:10:54;;;;;;;47.80;16.48;;;;;;;-0.50;95.07;103042.28;5018816;28;20397;-73
2022/01/11 03:13:19;;;;;;;42.25;15.38;;;;;;;-0.54;95.21;103046.69;5022863;28;20546;-74
2022/01/11 03:15:46;;;;;;;40.03;13.85;;;;;;;-0.57;95.02;103041.31;5025528;28;20109;-73
2022/01/11 03:18:12;;;;;;;45.75;15.68;;;;;;;-0.58;95.11;103052.88;5028660;28;20029;-74
2022/01/11 03:20:39;;;;;;;41.25;15.50;;;;;;;-0.61;95.37;103047.50;5024477;28;20056;-74
2022/01/11 03:23:05;;;;;;;43.75;15.05;;;;;;;-0.59;95.21;103053.78;5028877;28;20105;-73
2022/01/11 03:25:31;;;;;;;44.35;15.05;;;;;;;-0.61;95.14;103051.06;5028483;28;20433;-73
2022/01/11 03:27:56;;;;;;;45.83;14.85;;;;;;;-0.62;95.49;103048.38;5020025;28;20496;-74
2022/01/11 03:30:22;;;;;;;57.00;15.82;;;;;;;-0.60;95.38;103043.97;5024367;28;20056;-73
2022/01/11 03:32:47;;;;;;;46.15;16.27;;;;;;;-0.62;95.29;103035.03;5025484;28;20017;-74
2022/01/11 03:35:14;;;;;;;50.53;16.17;;;;;;;-0.61;94.95;103036.81;5026769;28;20029;-74
2022/01/11 03:37:41;;;;;;;42.83;16.27;;;;;;;-0.62;95.42;103032.34;5019311;28;20030;-73
2022/01/11 03:40:10;;;;;;;48.47;17.70;;;;;;;-0.63;95.47;103042.16;5025992;28;20491;-73
2022/01/11 03:42:36;;;;;;;47.20;16.45;;;;;;;-0.65;95.40;103032.34;5018471;28;20382;-74
2022/01/11 03:45:03;;;;;;;49.35;14.48;;;;;;;-0.64;95.31;103034.13;5017672;28;20036;-73
2022/01/11 03:47:28;;;;;;;40.00;13.57;;;;;;;-0.65;95.38;103037.69;5023060;28;20038;-73
2022/01/11 03:49:54;;;;;;;47.75;16.23;;;;;;;-0.70;95.32;103026.97;5026147;28;20034;-73
2022/01/11 03:52:20;;;;;;;49.13;15.55;;;;;;;-0.71;95.31;103027.81;5020963;28;20049;-73
2022/01/11 03:55:04;;;;;;;44.92;17.00;;;;;;;-0.71;95.27;103035.84;5021857;28;20500;-73
2022/01/11 03:57:31;;;;;;;43.08;14.25;;;;;;;-0.71;95.21;103030.47;5017985;28;20056;-73
2022/01/11 03:59:58;;;;;;;45.55;15.75;;;;;;;-0.70;95.43;103034.97;5024166;28;20029;-74
2022/01/11 04:02:24;;;;;;;44.67;15.07;;;;;;;-0.70;95.52;103031.38;5008648;28;20033;-73
2022/01/11 04:04:52;;;;;;;47.38;14.93;;;;;;;-0.71;95.53;103040.28;5024276;28;20029;-73
2022/01/11 04:07:20;;;;;;;42.65;17.00;;;;;;;-0.71;95.42;103053.66;5028262;28;20036;-74
2022/01/11 04:09:46;;;;;;;37.40;14.77;;;;;;;-0.73;95.46;103050.06;5013280;28;20500;-74
2022/01/11 04:12:11;;;;;;;41.35;15.52;;;;;;;-0.75;95.31;103051.81;5020553;28;20034;-74
2022/01/11 04:14:38;;;;;;;39.95;14.65;;;;;;;-0.72;95.34;103059.88;5023017;28;20035;-74
2022/01/11 04:17:03;;;;;;;43.67;15.10;;;;;;;-0.74;95.37;103057.19;5028671;28;20385;-73
2022/01/11 04:19:29;;;;;;;43.25;16.67;;;;;;;-0.75;95.40;103051.81;5023532;28;20038;-73
2022/01/11 04:21:54;;;;;;;45.30;15.63;;;;;;;-0.74;95.30;103053.63;5027128;28;20428;-72
2022/01/11 04:24:19;;;;;;;40.88;14.15;;;;;;;-0.74;95.16;103048.28;5027968;28;20025;-73
2022/01/11 04:26:44;;;;;;;41.20;15.52;;;;;;;-0.75;95.23;103046.47;5023512;28;20091;-73
2022/01/11 04:29:10;;;;;;;41.80;14.38;;;;;;;-0.77;95.22;103058.06;5016704;28;20049;-74
2022/01/11 04:31:35;;;;;;;44.60;15.52;;;;;;;-0.76;95.14;103058.94;5023038;28;20041;-74
2022/01/11 04:34:00;;;;;;;41.45;15.13;;;;;;;-0.79;95.21;103064.28;5026657;28;20025;-74
2022/01/11 04:36:26;;;;;;;44.33;17.10;;;;;;;-0.80;95.36;103063.34;5025709;28;20071;-74
2022/01/11 04:38:51;;;;;;;41.20;15.52;;;;;;;-0.81;94.83;103071.38;5012716;28;20029;-74
2022/01/11 04:41:17;;;;;;;41.58;15.18;;;;;;;-0.82;95.18;103070.47;5021976;28;20502;-74
2022/01/11 04:43:42;;;;;;;41.97;16.65;;;;;;;-0.85;95.27;103074.88;5021025;28;20037;-74
2022/01/11 04:46:08;;;;;;;43.53;15.93;;;;;;;-0.85;95.30;103081.13;5027440;28;20029;-74
2022/01/11 04:48:33;;;;;;;39.40;14.18;;;;;;;-0.86;95.28;103079.34;5028354;28;20033;-73
2022/01/11 04:51:02;;;;;;;44.55;15.90;;;;;;;-0.88;95.06;103069.53;5025660;28;20389;-74
2022/01/11 04:53:27;;;;;;;41.85;15.52;;;;;;;-0.91;94.88;103064.13;5027579;28;20069;-73
2022/01/11 04:55:53;;;;;;;42.95;14.70;;;;;;;-0.94;95.34;103058.75;5026444;28;20043;-74
2022/01/11 04:58:18;;;;;;;46.35;15.20;;;;;;;-0.95;95.11;103060.53;5018287;28;20051;-74
2022/01/11 05:00:44;;;;;;;43.90;14.98;;;;;;;-1.00;95.19;103062.25;5022525;28;20033;-74
2022/01/11 05:03:09;;;;;;;49.15;15.52;;;;;;;-1.05;95.16;103053.31;5015817;28;20527;-74
2022/01/11 05:05:34;;;;;;;44.63;17.00;;;;;;;-1.09;95.50;103060.38;5023756;28;20030;-74
2022/01/11 05:08:02;;;;;;;47.47;16.65;;;;;;;-1.14;95.40;103054.09;5026809;28;20478;-74
2022/01/11 05:10:27;;;;;;;42.67;16.42;;;;;;;-1.14;95.30;103058.53;5026900;28;20029;-74
2022/01/11 05:12:52;;;;;;;41.00;15.85;;;;;;;-1.15;95.55;103057.66;5024532;28;20025;-74
2022/01/11 05:15:18;;;;;;;42.58;14.05;;;;;;;-1.17;95.41;103054.03;5027113;28;20021;-74
2022/01/11 05:17:43;;;;;;;42.35;14.93;;;;;;;-1.18;95.54;103054.03;5026939;28;20072;-74
2022/01/11 05:20:10;;;;;;;39.95;15.05;;;;;;;-1.19;95.43;103057.59;5015726;28;20084;-74
2022/01/11 05:22:38;;;;;;;48.72;16.17;;;;;;;-1.22;95.68;103054.88;5023827;28;20030;-73
2022/01/11 05:25:04;;;;;;;44.65;15.68;;;;;;;-1.25;95.43;103050.41;5025016;28;20121;-74
2022/01/11 05:27:30;;;;;;;51.25;17.30;;;;;;;-1.28;95.46;103050.34;5012500;28;20026;-74
2022/01/11 05:29:56;;;;;;;45.28;15.75;;;;;;;-1.31;95.49;103055.66;5011796;28;20026;-74
2022/01/11 05:32:21;;;;;;;43.50;15.10;;;;;;;-1.35;95.56;103048.50;5023243;28;20037;-74
2022/01/11 05:34:46;;;;;;;43.90;15.80;;;;;;;-1.36;95.72;103046.69;5009932;28;20030;-74
2022/01/11 05:37:11;;;;;;;47.42;17.75;;;;;;;-1.39;95.77;103049.34;5016392;28;20032;-74
2022/01/11 05:39:38;;;;;;;53.35;17.00;;;;;;;-1.39;95.62;103055.56;5008533;28;20526;-75
2022/01/11 05:42:06;;;;;;;45.33;16.45;;;;;;;-1.41;95.67;103048.41;5006248;28;20034;-74
2022/01/11 05:44:33;;;;;;;42.13;16.00;;;;;;;-1.42;95.67;103055.53;5022785;28;20041;-74
2022/01/11 05:46:58;;;;;;;47.10;16.13;;;;;;;-1.45;95.58;103055.47;5005725;28;20022;-74
2022/01/11 05:49:23;;;;;;;44.47;15.85;;;;;;;-1.46;95.49;103056.38;5009505;28;20072;-75
2022/01/11 05:51:48;;;;;;;66.15;20.17;;;;;;;-1.46;95.66;103053.69;5006941;28;20028;-74
2022/01/11 05:54:14;;;;;;;57.00;15.82;;;;;;;-1.47;95.65;103059.91;5011819;28;20461;-75
2022/01/11 05:56:39;;;;;;;50.10;16.67;;;;;;;-1.47;95.57;103064.38;5021181;28;20018;-75
2022/01/11 05:59:04;;;;;;;45.83;17.02;;;;;;;-1.50;95.45;103066.97;5015042;28;20029;-75
2022/01/11 06:01:30;;;;;;;40.95;14.70;;;;;;;-1.52;95.84;103069.63;5023490;28;20384;-75
2022/01/11 06:03:55;;;;;;;45.08;16.00;;;;;;;-1.49;95.47;103084.78;5025601;28;20397;-76
2022/01/11 06:06:20;;;;;;;51.95;15.77;;;;;;;-1.51;95.98;103086.53;5012141;28;20034;-74
2022/01/11 06:08:48;;;;;;;48.03;16.55;;;;;;;-1.52;95.61;103095.44;5025666;28;20028;-74
2022/01/11 06:11:13;;;;;;;43.40;15.57;;;;;;;-1.52;95.48;103096.31;5026059;28;20052;-76
2022/01/11 06:13:39;;;;;;;48.63;16.80;;;;;;;-1.52;95.62;103107.00;5020540;28;20098;-75
2022/01/11 06:16:04;;;;;;;41.17;14.30;;;;;;;-1.52;95.65;103108.78;5029338;28;20028;-76
2022/01/11 06:18:30;;;;;;;49.65;15.70;;;;;;;-1.55;95.53;103110.50;5021109;28;20170;-75
2022/01/11 06:20:55;;;;;;;42.45;15.27;;;;;;;-1.51;95.80;103118.56;5020982;28;20088;-75
2022/01/11 06:23:20;;;;;;;50.03;15.43;;;;;;;-1.56;95.74;103114.06;5011300;28;20053;-75
2022/01/11 06:25:46;;;;;;;47.00;14.85;;;;;;;-1.54;95.67;103116.75;5025024;28;20065;-74
2022/01/11 06:28:11;;;;;;;44.78;15.52;;;;;;;-1.53;95.59;103125.69;5024893;28;20041;-75
2022/01/11 06:30:36;;;;;;;37.63;14.65;;;;;;;-1.58;95.59;103118.50;5011501;28;20073;-75
2022/01/11 06:33:02;;;;;;;38.97;15.55;;;;;;;-1.59;95.69;103122.00;5010679;28;20068;-76
2022/01/11 06:35:27;;;;;;;43.60;15.07;;;;;;;-1.61;95.26;103121.09;5010653;28;20619;-74
2022/01/11 06:37:53;;;;;;;47.40;15.98;;;;;;;-1.65;95.21;103126.38;5008545;28;20033;-74
2022/01/11 06:40:20;;;;;;;51.20;16.75;;;;;;;-1.71;95.36;103120.97;5010637;28;20101;-77
2022/01/11 06:42:47;;;;;;;48.33;15.65;;;;;;;-1.73;95.37;103128.91;5012936;28;20053;-76
2022/01/11 06:45:13;;;;;;;42.00;14.38;;;;;;;-1.75;95.52;103125.34;5009450;28;20109;-76
2022/01/11 06:47:39;;;;;;;51.03;16.65;;;;;;;-1.77;95.88;103128.84;5013092;28;20420;-76
2022/01/11 06:50:05;;;;;;;49.42;15.35;;;;;;;-1.78;95.42;103133.28;5012922;28;20061;-75
2022/01/11 06:52:30;;;;;;;47.90;14.95;;;;;;;-1.78;95.69;103132.41;5008724;28;20776;-76
2022/01/11 06:54:56;;;;;;;42.75;14.95;;;;;;;-1.77;95.24;103134.19;5024109;28;20525;-76
2022/01/11 06:57:21;;;;;;;39.60;15.63;;;;;;;-1.81;95.35;103134.16;5012608;28;20087;-74
2022/01/11 06:59:46;;;;;;;37.38;15.52;;;;;;;-1.87;95.21;103123.38;5025740;28;20033;-74
2022/01/11 07:02:12;;;;;;;42.92;15.55;;;;;;;-1.86;95.68;103132.31;5013550;28;20030;-76
2022/01/11 07:04:37;;;;;;;45.20;16.52;;;;;;;-1.86;95.54;103134.97;5010190;28;20021;-78
2022/01/11 07:07:07;;;;;;;39.50;15.57;;;;;;;-1.88;95.62;103139.38;5008554;28;20049;-79
2022/01/11 07:09:33;;;;;;;47.20;16.40;;;;;;;-1.86;95.59;103143.88;5011429;28;20160;-77
2022/01/11 07:11:59;;;;;;;42.90;16.27;;;;;;;-1.86;95.52;103145.63;5023497;28;20025;-78
2022/01/11 07:14:24;;;;;;;46.35;17.20;;;;;;;-1.88;95.70;103142.03;5015514;28;20548;-79
2022/01/11 07:16:49;;;;;;;46.25;15.73;;;;;;;-1.90;95.90;103144.69;5023827;28;20029;-80
2022/01/11 07:19:16;;;;;;;45.63;17.35;;;;;;;-1.88;95.79;103153.59;5013931;28;20013;-76
2022/01/11 07:21:44;;;;;;;45.58;17.30;;;;;;;-1.88;95.75;103158.03;5011787;28;20469;-80
2022/01/11 07:24:09;;;;;;;60.13;15.93;;;;;;;-1.89;95.79;103162.47;5027386;28;20024;-76
2022/01/11 07:26:35;;;;;;;47.67;15.40;;;;;;;-1.90;95.64;103168.69;5010000;28;20026;-79
2022/01/11 07:29:00;;;;;;;47.13;16.05;;;;;;;-1.91;95.72;103163.31;5018691;28;20378;-77
2022/01/11 07:31:25;;;;;;;49.92;17.98;;;;;;;-1.88;95.81;103172.28;5018651;28;20087;-76
2022/01/11 07:33:50;;;;;;;42.83;15.65;;;;;;;-1.90;95.47;103166.03;5008321;28;20425;-79
2022/01/11 07:36:16;;;;;;;54.70;16.88;;;;;;;-1.87;95.84;103181.16;5009774;28;20025;-79
2022/01/11 07:38:41;;;;;;;48.70;17.40;;;;;;;-1.90;95.72;103174.03;5013619;28;20370;-80
2022/01/11 07:41:07;;;;;;;46.33;17.75;;;;;;;-1.87;95.64;103190.06;5014555;28;20037;-78
2022/01/11 07:43:32;;;;;;;51.38;17.42;;;;;;;-1.85;95.65;103183.00;5009181;28;20022;-79
2022/01/11 07:45:57;;;;;;;49.58;17.08;;;;;;;-1.84;95.90;103190.13;5008644;28;20403;-78
2022/01/11 07:48:22;;;;;;;50.50;16.38;;;;;;;-1.83;95.55;103191.03;5026658;28;20030;-79
2022/01/11 07:50:48;;;;;;;45.78;15.98;;;;;;;-1.85;95.71;103185.66;5008217;28;20669;-78
2022/01/11 07:53:13;;;;;;;42.58;15.43;;;;;;;-1.82;95.77;103191.06;5011808;28;20046;-77
2022/01/11 07:55:38;;;;;;;47.42;15.77;;;;;;;-1.81;95.66;103190.19;5016257;28;20372;-79
2022/01/11 07:58:04;;;;;;;44.85;17.67;;;;;;;-1.80;95.96;103186.63;5010121;28;20504;-77
2022/01/11 08:00:31;;;;;;;41.92;15.93;;;;;;;-1.74;95.81;103191.16;5022696;28;20060;-79
2022/01/11 08:02:56;;;;;;;46.60;15.52;;;;;;;-1.72;95.49;103194.78;5009257;28;20040;-76
2022/01/11 08:05:21;;;;;;;45.53;16.60;;;;;;;-1.70;95.35;103186.78;5007613;28;20378;-78
2022/01/11 08:07:47;;;;;;;41.30;15.68;;;;;;;-1.68;95.57;103188.63;5007201;28;20413;-77
2022/01/11 08:10:16;;;;;;;44.65;15.70;;;;;;;-1.65;95.33;103185.97;5017576;28;20127;-77
2022/01/11 08:12:42;;;;;;;45.75;15.73;;;;;;;-1.62;95.68;103186.03;5017067;28;20033;-77
2022/01/11 08:15:07;;;;;;;42.35;14.77;;;;;;;-1.59;95.41;103193.19;5007111;28;20030;-77
2022/01/11 08:17:33;;;;;;;46.65;17.17;;;;;;;-1.58;95.43;103184.31;5008114;28;20394;-77
2022/01/11 08:19:58;;;;;;;41.95;14.57;;;;;;;-1.51;95.70;103193.31;5007345;28;20137;-76
2022/01/11 08:22:25;;;;;;;45.25;14.88;;;;;;;-1.45;95.79;103188.06;5022138;28;20257;-78
2022/01/11 08:24:50;;;;;;;42.00;15.98;;;;;;;-1.38;95.45;103195.28;5014670;28;20498;-78
2022/01/11 08:27:16;;;;;;;41.88;14.50;;;;;;;-1.30;95.63;103199.88;5005815;28;20116;-79
2022/01/11 08:29:42;;;;;;;40.92;15.95;;;;;;;-1.26;95.71;103198.13;5007293;28;20026;-79
2022/01/11 08:32:08;;;;;;;46.83;16.77;;;;;;;-1.16;95.79;103201.84;5012909;28;20045;-78
2022/01/11 08:34:33;;;;;;;40.22;13.68;;;;;;;-1.08;95.71;103200.16;5011263;28;20158;-75
2022/01/11 08:36:59;;;;;;;40.45;14.43;;;;;;;-0.99;95.60;103202.06;5020998;28;20440;-78
2022/01/11 08:39:25;;;;;;;37.35;13.93;;;;;;;-0.89;95.67;103201.28;5011754;28;20029;-76
2022/01/11 08:41:51;;;;;;;50.63;15.55;;;;;;;-0.83;95.32;103204.97;5015106;28;20026;-74
2022/01/11 08:44:19;;;;;;;52.05;15.90;;;;;;;-0.75;95.40;103188.13;5013104;28;20033;-74
2022/01/11 08:46:44;;;;;;;42.63;14.90;;;;;;;-0.66;95.24;103193.56;5025777;28;20108;-75
2022/01/11 08:49:10;;;;;;;38.67;15.77;;;;;;;-0.59;95.06;103200.78;5025841;28;20112;-73
2022/01/11 08:51:36;;;;;;;40.80;14.07;;;;;;;-0.52;94.79;103195.50;5026408;28;20021;-75
2022/01/11 08:54:03;;;;;;;43.22;14.98;;;;;;;-0.44;94.71;103195.63;5021259;28;20056;-75
2022/01/11 08:56:30;;;;;;;40.63;15.13;;;;;;;-0.38;94.41;103206.38;5006772;28;20042;-74
2022/01/11 08:58:55;;;;;;;34.33;13.15;;;;;;;-0.36;94.16;103193.03;5015311;28;20437;-74
2022/01/11 09:01:21;;;;;;;37.65;13.98;;;;;;;-0.28;94.53;103197.59;5024260;28;20108;-75
2022/01/11 09:03:46;;;;;;;44.25;15.23;;;;;;;-0.23;94.37;103202.06;5026696;28;20056;-75
2022/01/11 09:06:11;;;;;;;33.72;12.25;;;;;;;-0.16;94.26;103210.16;5026080;28;20053;-75
2022/01/11 09:08:37;;;;;;;32.35;13.00;;;;;;;-0.11;94.03;103211.09;5026757;28;20403;-74
2022/01/11 09:11:05;;;;;;;37.38;15.57;;;;;;;-0.06;93.77;103212.06;5022494;28;20473;-73
2022/01/11 09:13:31;;;;;;;40.25;14.70;;;;;;;0.01;93.74;103209.44;5016745;28;20065;-75
2022/01/11 09:15:56;;;;;;;38.95;14.35;;;;;;;0.07;93.67;103207.72;5025797;28;20645;-75
2022/01/11 09:18:22;;;;;;;31.75;13.55;;;;;;;0.14;93.42;103214.94;5019066;28;20473;-75
2022/01/11 09:20:48;;;;;;;33.33;13.60;;;;;;;0.19;92.96;103209.63;5004986;28;20153;-73
2022/01/11 09:23:13;;;;;;;41.28;15.32;;;;;;;0.25;92.85;103213.22;5006908;28;20037;-75
2022/01/11 09:25:38;;;;;;;36.47;14.35;;;;;;;0.32;93.03;103216.84;5012773;28;20022;-75
2022/01/11 09:28:04;;;;;;;38.67;14.73;;;;;;;0.40;92.89;103220.50;5008921;28;20034;-73
2022/01/11 09:30:29;;;;;;;29.35;12.40;;;;;;;0.44;92.43;103216.06;5010811;28;20022;-75
2022/01/11 09:32:54;;;;;;;35.08;15.20;;;;;;;0.53;92.37;103210.78;5005710;28;20429;-74
2022/01/11 09:35:20;;;;;;;32.95;12.95;;;;;;;0.62;91.99;103208.16;5006372;28;20038;-76
2022/01/11 09:37:46;;;;;;;28.60;13.27;;;;;;;0.69;91.84;103214.44;5011395;28;20113;-75
2022/01/11 09:40:12;;;;;;;32.50;12.57;;;;;;;0.76;91.51;103224.31;5014414;28;20052;-76
2022/01/11 09:42:39;;;;;;;33.45;13.90;;;;;;;0.82;91.05;103226.16;5010480;28;20032;-76
2022/01/11 09:45:06;;;;;;;33.05;12.85;;;;;;;0.85;91.18;103218.13;5009872;28;20030;-76
2022/01/11 09:47:31;;;;;;;31.88;13.00;;;;;;;0.91;90.45;103223.53;5010267;28;20532;-76
2022/01/11 09:49:56;;;;;;;28.95;12.15;;;;;;;0.96;90.94;103230.69;5013064;28;20025;-76
2022/01/11 09:52:25;;;;;;;28.90;12.57;;;;;;;1.00;90.76;103237.88;5010005;28;20044;-76
2022/01/11 09:54:51;;;;;;;32.60;13.70;;;;;;;1.01;90.42;103230.72;5010415;28;20030;-76
2022/01/11 09:57:16;;;;;;;32.15;11.23;;;;;;;1.03;90.34;103231.66;5009532;28;20032;-73
2022/01/11 09:59:42;;;;;;;33.30;13.07;;;;;;;1.07;90.02;103237.91;5028522;28;20025;-75
2022/01/11 10:02:08;;;;;;;26.00;10.98;;;;;;;1.11;90.16;103237.03;5017662;28;20133;-76
2022/01/11 10:04:35;;;;;;;25.05;11.75;;;;;;;1.15;89.63;103239.72;5020305;28;20032;-75
2022/01/11 10:07:04;;;;;;;26.70;12.07;;;;;;;1.22;89.84;103235.31;5029107;28;20029;-74
2022/01/11 10:09:31;;;;;;;31.70;11.60;;;;;;;1.24;89.60;103230.84;5030366;28;20389;-75
2022/01/11 10:11:58;;;;;;;21.15;11.07;;;;;;;1.30;88.93;103238.91;5025117;28;20045;-76
2022/01/11 10:14:33;;;;;;;34.20;11.88;;;;;;;1.35;89.26;103245.19;5026296;28;20030;-74
2022/01/11 10:17:19;;;;;;;28.17;11.05;;;;;;;1.42;89.89;103243.44;5029831;28;20040;-75
2022/01/11 10:19:47;;;;;;;24.35;11.18;;;;;;;1.46;89.99;103237.22;5028173;28;20024;-75
2022/01/11 10:22:20;;;;;;;25.30;12.25;;;;;;;1.53;89.50;103247.03;5023650;28;20055;-75
2022/01/11 10:24:54;;;;;;;27.55;11.18;;;;;;;1.58;89.65;103239.91;5027867;28;20355;-75
2022/01/11 10:27:26;;;;;;;25.38;10.85;;;;;;;1.64;89.42;103239.06;5017673;28;20026;-75
2022/01/11 10:29:54;;;;;;;27.67;12.02;;;;;;;1.70;89.57;103234.59;5042167;28;20034;-73
2022/01/11 10:32:27;;;;;;;26.75;10.98;;;;;;;1.75;88.88;103238.19;5023257;28;20018;-74
2022/01/11 10:34:55;;;;;;;26.23;10.45;;;;;;;1.82;88.52;103240.88;5026757;28;20040;-74
2022/01/11 10:37:33;;;;;;;24.05;11.73;;;;;;;1.87;88.50;103239.13;5026290;28;20029;-74
2022/01/11 10:40:15;;;;;;;23.40;10.57;;;;;;;1.91;88.15;103238.22;5027045;28;20021;-75
2022/01/11 10:42:51;;;;;;;24.58;11.30;;;;;;;1.97;88.55;103247.19;5023735;28;20034;-75
2022/01/11 10:45:25;;;;;;;23.40;10.25;;;;;;;2.02;88.33;103239.16;5020657;28;20369;-74
2022/01/11 10:47:53;;;;;;;25.85;10.30;;;;;;;2.07;87.71;103247.22;5016751;28;20030;-75
2022/01/11 10:50:27;;;;;;;18.55;9.65;;;;;;;2.13;87.35;103247.22;5009096;28;20028;-75
2022/01/11 10:52:53;;;;;;;26.70;11.02;;;;;;;2.17;88.17;103246.31;5007188;28;20068;-74
2022/01/11 10:55:21;;;;;;;23.60;10.52;;;;;;;2.21;87.08;103246.31;5008968;28;20045;-74
2022/01/11 10:57:59;;;;;;;21.83;10.20;;;;;;;2.26;87.72;103240.97;5008256;28;20156;-74
2022/01/11 11:00:40;;;;;;;18.17;8.95;;;;;;;2.33;86.72;103245.41;5015806;28;20542;-74
2022/01/11 11:03:10;;;;;;;21.48;11.10;;;;;;;2.37;87.19;103240.94;5016463;28;20018;-73
2022/01/11 11:05:38;;;;;;;23.48;9.80;;;;;;;2.40;86.65;103247.22;5019665;28;20473;-75
2022/01/11 11:08:07;;;;;;;23.10;10.18;;;;;;;2.44;86.43;103235.59;5015064;28;20049;-73
2022/01/11 11:10:34;;;;;;;22.77;9.85;;;;;;;2.48;85.90;103239.19;5020498;28;20026;-74